Time;durP1;ratioP1;P1;durP2;ratioP2;P2;SDS_P1;SDS_P2;PMS_P1;PMS_P2;Temp;Humidity;BMP_temperature;BMP_pressure;BME280_temperature;BME280_humidity;BME280_pressure;Samples;Min_cycle;Max_cycle;Signal;HPM_P1;HPM_P2
2022/07/03 00:00:33;;;;;;;;;;;;;;;;;;5036382;28;20327;-73
2022/07/03 00:02:59;;;;;;;;;;;;;;;;;;5038189;28;20426;-73
2022/07/03 00:05:25;;;;;;;;;;;;;;;;;;5039213;28;20397;-73
2022/07/03 00:07:51;;;;;;;;;;;;;;;;;;5038340;28;20387;-73
2022/07/03 00:10:17;;;;;;;;;;;;;;;;;;5038549;28;20263;-73
2022/07/03 00:12:43;;;;;;;;;;;;;;;;;;5038297;28;20268;-73
2022/07/03 00:15:09;;;;;;;;;;;;;;;;;;5038162;28;19920;-73
2022/07/03 00:17:34;;;;;;;;;;;;;;;;;;5038186;28;19916;-73
2022/07/03 00:20:00;;;;;;;;;;;;;;;;;;5038292;28;19940;-73
2022/07/03 00:22:26;;;;;;;;;;;;;;;;;;5038140;28;19999;-73
2022/07/03 00:24:52;;;;;;;;;;;;;;;;;;5038259;28;19963;-73
2022/07/03 00:27:18;;;;;;;;;;;;;;;;;;5038422;28;19909;-73
2022/07/03 00:29:44;;;;;;;;;;;;;;;;;;5038201;28;19909;-73
2022/07/03 00:32:10;;;;;;;;;;;;;;;;;;5037657;28;20427;-73
2022/07/03 00:34:36;;;;;;;;;;;;;;;;;;5038356;28;19947;-73
2022/07/03 00:37:02;;;;;;;;;;;;;;;;;;5037980;28;19913;-73
2022/07/03 00:39:28;;;;;;;;;;;;;;;;;;5037930;28;19912;-73
2022/07/03 00:41:54;;;;;;;;;;;;;;;;;;5037962;28;20344;-73
2022/07/03 00:44:20;;;;;;;;;;;;;;;;;;5038439;28;20359;-73
2022/07/03 00:46:46;;;;;;;;;;;;;;;;;;5037010;28;19917;-73
2022/07/03 00:49:12;;;;;;;;;;;;;;;;;;5038348;28;19915;-73
2022/07/03 00:51:39;;;;;;;;;;;;;;;;;;5037753;28;19952;-73
2022/07/03 00:54:05;;;;;;;;;;;;;;;;;;5037368;28;19909;-73
2022/07/03 00:56:30;;;;;;;;;;;;;;;;;;5037722;28;19916;-73
2022/07/03 00:58:56;;;;;;;;;;;;;;;;;;5038008;28;19920;-73
2022/07/03 01:01:22;;;;;;;;;;;;;;;;;;5037341;28;19924;-73
2022/07/03 01:03:48;;;;;;;;;;;;;;;;;;5037559;28;19948;-73
2022/07/03 01:06:14;;;;;;;;;;;;;;;;;;5038041;28;19909;-73
2022/07/03 01:08:40;;;;;;;;;;;;;;;;;;5037717;28;20340;-73
2022/07/03 01:11:06;;;;;;;;;;;;;;;;;;5037181;28;20367;-73
2022/07/03 01:13:32;;;;;;;;;;;;;;;;;;5036342;28;19963;-73
2022/07/03 01:15:59;;;;;;;;;;;;;;;;;;5036645;28;19909;-73
2022/07/03 01:18:25;;;;;;;;;;;;;;;;;;5036863;28;19915;-73
2022/07/03 01:20:51;;;;;;;;;;;;;;;;;;5037158;28;20003;-73
2022/07/03 01:23:17;;;;;;;;;;;;;;;;;;5037158;28;19959;-73
2022/07/03 01:25:43;;;;;;;;;;;;;;;;;;5036736;28;19909;-73
2022/07/03 01:28:09;;;;;;;;;;;;;;;;;;5037193;28;20011;-73
2022/07/03 01:30:35;;;;;;;;;;;;;;;;;;5037065;28;19963;-73
2022/07/03 01:33:01;;;;;;;;;;;;;;;;;;5036562;28;19913;-73
2022/07/03 01:35:27;;;;;;;;;;;;;;;;;;5037058;28;19996;-73
2022/07/03 01:37:53;;;;;;;;;;;;;;;;;;5037132;28;19909;-73
2022/07/03 01:40:19;;;;;;;;;;;;;;;;;;5036738;28;19943;-73
2022/07/03 01:42:44;;;;;;;;;;;;;;;;;;5036565;28;19920;-73
2022/07/03 01:45:10;;;;;;;;;;;;;;;;;;5036804;28;19984;-73
2022/07/03 01:47:36;;;;;;;;;;;;;;;;;;5036366;28;19917;-73
2022/07/03 01:50:02;;;;;;;;;;;;;;;;;;5036950;28;19909;-73
2022/07/03 01:52:28;;;;;;;;;;;;;;;;;;5037163;28;19909;-73
2022/07/03 01:54:54;;;;;;;;;;;;;;;;;;5036894;28;19971;-73
2022/07/03 01:57:20;;;;;;;;;;;;;;;;;;5037183;28;19909;-73
2022/07/03 01:59:46;;;;;;;;;;;;;;;;;;5037283;28;19920;-73
2022/07/03 02:02:12;;;;;;;;;;;;;;;;;;5036545;28;19955;-73
2022/07/03 02:04:38;;;;;;;;;;;;;;;;;;5036729;28;19909;-73
2022/07/03 02:07:04;;;;;;;;;;;;;;;;;;5036870;28;19915;-73
2022/07/03 02:09:30;;;;;;;;;;;;;;;;;;5037169;28;19909;-73
2022/07/03 02:11:56;;;;;;;;;;;;;;;;;;5036234;28;19916;-73
2022/07/03 02:14:22;;;;;;;;;;;;;;;;;;5037025;28;19916;-73
2022/07/03 02:16:48;;;;;;;;;;;;;;;;;;5036310;28;20259;-73
2022/07/03 02:19:14;;;;;;;;;;;;;;;;;;5036624;28;19936;-73
2022/07/03 02:21:39;;;;;;;;;;;;;;;;;;5036092;28;19967;-73
2022/07/03 02:24:05;;;;;;;;;;;;;;;;;;5036332;28;19913;-73
2022/07/03 02:26:31;;;;;;;;;;;;;;;;;;5036044;28;19909;-73
2022/07/03 02:28:57;;;;;;;;;;;;;;;;;;5036783;28;19913;-73
2022/07/03 02:31:23;;;;;;;;;;;;;;;;;;5036013;28;19909;-73
2022/07/03 02:33:49;;;;;;;;;;;;;;;;;;5035870;28;19919;-73
2022/07/03 02:36:15;;;;;;;;;;;;;;;;;;5036399;28;19916;-73
2022/07/03 02:38:41;;;;;;;;;;;;;;;;;;5035743;28;19909;-73
2022/07/03 02:41:07;;;;;;;;;;;;;;;;;;5036717;28;19913;-73
2022/07/03 02:43:33;;;;;;;;;;;;;;;;;;5035954;28;19913;-73
2022/07/03 02:45:59;;;;;;;;;;;;;;;;;;5035632;28;20360;-73
2022/07/03 02:48:25;;;;;;;;;;;;;;;;;;5036187;28;20430;-73
2022/07/03 02:50:51;;;;;;;;;;;;;;;;;;5035575;28;20363;-73
2022/07/03 02:53:17;;;;;;;;;;;;;;;;;;5035240;28;19916;-73
2022/07/03 02:55:43;;;;;;;;;;;;;;;;;;5035476;28;19963;-73
2022/07/03 02:58:09;;;;;;;;;;;;;;;;;;5035451;28;19913;-73
2022/07/03 03:00:34;;;;;;;;;;;;;;;;;;5035350;28;20426;-73
2022/07/03 03:03:01;;;;;;;;;;;;;;;;;;5034989;28;20368;-73
2022/07/03 03:05:30;;;;;;;;;;;;;;;;;;5035800;28;19909;-73
2022/07/03 03:07:55;;;;;;;;;;;;;;;;;;5034932;28;19981;-73
2022/07/03 03:10:21;;;;;;;;;;;;;;;;;;5035827;28;19909;-73
2022/07/03 03:12:47;;;;;;;;;;;;;;;;;;5035182;28;19916;-73
2022/07/03 03:15:13;;;;;;;;;;;;;;;;;;5035924;28;19909;-73
2022/07/03 03:17:40;;;;;;;;;;;;;;;;;;5035008;28;20383;-73
2022/07/03 03:20:06;;;;;;;;;;;;;;;;;;5035549;28;19917;-73
2022/07/03 03:22:32;;;;;;;;;;;;;;;;;;5035047;28;19913;-73
2022/07/03 03:24:58;;;;;;;;;;;;;;;;;;5034758;28;19936;-73
2022/07/03 03:27:24;;;;;;;;;;;;;;;;;;5035225;28;19935;-73
2022/07/03 03:29:50;;;;;;;;;;;;;;;;;;5034710;28;19909;-73
2022/07/03 03:32:16;;;;;;;;;;;;;;;;;;5034406;28;19942;-73
2022/07/03 03:34:42;;;;;;;;;;;;;;;;;;5034104;28;19909;-73
2022/07/03 03:37:07;;;;;;;;;;;;;;;;;;5035171;28;19909;-73
2022/07/03 03:39:33;;;;;;;;;;;;;;;;;;5035382;28;20088;-73
2022/07/03 03:42:02;;;;;;;;;;;;;;;;;;5034546;28;19924;-73
2022/07/03 03:44:28;;;;;;;;;;;;;;;;;;5035448;28;19916;-73
2022/07/03 03:46:54;;;;;;;;;;;;;;;;;;5034248;28;19917;-73
2022/07/03 03:49:20;;;;;;;;;;;;;;;;;;5034863;28;19909;-73
2022/07/03 03:51:46;;;;;;;;;;;;;;;;;;5035092;28;19918;-73
2022/07/03 03:54:12;;;;;;;;;;;;;;;;;;5035359;28;19909;-73
2022/07/03 03:56:38;;;;;;;;;;;;;;;;;;5035085;28;19909;-73
2022/07/03 03:59:04;;;;;;;;;;;;;;;;;;5035589;28;20000;-73
2022/07/03 04:01:30;;;;;;;;;;;;;;;;;;5034460;28;19917;-73
2022/07/03 04:03:56;;;;;;;;;;;;;;;;;;5035763;28;19916;-73
2022/07/03 04:06:22;;;;;;;;;;;;;;;;;;5035247;28;20221;-73
2022/07/03 04:08:47;;;;;;;;;;;;;;;;;;5035237;28;19987;-73
2022/07/03 04:11:13;;;;;;;;;;;;;;;;;;5034617;28;19919;-73
2022/07/03 04:13:39;;;;;;;;;;;;;;;;;;5034792;28;19913;-73
2022/07/03 04:16:05;;;;;;;;;;;;;;;;;;5034952;28;19962;-73
2022/07/03 04:18:31;;;;;;;;;;;;;;;;;;5034559;28;19916;-73
2022/07/03 04:20:57;;;;;;;;;;;;;;;;;;5034930;28;20340;-73
2022/07/03 04:23:23;;;;;;;;;;;;;;;;;;5034832;28;20263;-73
2022/07/03 04:25:49;;;;;;;;;;;;;;;;;;5034928;28;20268;-73
2022/07/03 04:28:15;;;;;;;;;;;;;;;;;;5034407;28;20011;-73
2022/07/03 04:30:41;;;;;;;;;;;;;;;;;;5034617;28;19909;-73
2022/07/03 04:33:07;;;;;;;;;;;;;;;;;;5034260;28;19909;-73
2022/07/03 04:35:33;;;;;;;;;;;;;;;;;;5034686;28;20247;-73
2022/07/03 04:37:59;;;;;;;;;;;;;;;;;;5034726;28;19913;-73
2022/07/03 04:40:25;;;;;;;;;;;;;;;;;;5034572;28;19920;-73
2022/07/03 04:42:51;;;;;;;;;;;;;;;;;;5034313;28;19920;-73
2022/07/03 04:45:17;;;;;;;;;;;;;;;;;;5016848;28;19909;-73
2022/07/03 04:47:43;;;;;;;;;;;;;;;;;;5037215;28;19945;-73
2022/07/03 04:50:09;;;;;;;;;;;;;;;;;;5037849;28;20352;-73
2022/07/03 04:52:35;;;;;;;;;;;;;;;;;;5037591;28;19909;-73
2022/07/03 04:55:02;;;;;;;;;;;;;;;;;;5038019;28;19916;-73
2022/07/03 04:57:28;;;;;;;;;;;;;;;;;;5037357;28;20374;-73
2022/07/03 04:59:54;;;;;;;;;;;;;;;;;;5037269;28;19913;-73
2022/07/03 05:02:20;;;;;;;;;;;;;;;;;;5037068;28;19944;-73
2022/07/03 05:04:46;;;;;;;;;;;;;;;;;;5038090;28;19917;-73
2022/07/03 05:07:12;;;;;;;;;;;;;;;;;;5037527;28;19909;-73
2022/07/03 05:09:38;;;;;;;;;;;;;;;;;;5037495;28;19915;-73
2022/07/03 05:12:04;;;;;;;;;;;;;;;;;;5037859;28;19909;-73
2022/07/03 05:14:30;;;;;;;;;;;;;;;;;;5037361;28;20364;-73
2022/07/03 05:16:55;;;;;;;;;;;;;;;;;;5037521;28;20439;-73
2022/07/03 05:19:21;;;;;;;;;;;;;;;;;;5036906;28;20383;-73
2022/07/03 05:21:47;;;;;;;;;;;;;;;;;;5036968;28;20360;-73
2022/07/03 05:24:13;;;;;;;;;;;;;;;;;;5037484;28;20074;-73
2022/07/03 05:26:39;;;;;;;;;;;;;;;;;;5037194;28;20268;-73
2022/07/03 05:29:05;;;;;;;;;;;;;;;;;;5036927;28;19909;-73
2022/07/03 05:31:31;;;;;;;;;;;;;;;;;;5036921;28;19909;-73
2022/07/03 05:33:57;;;;;;;;;;;;;;;;;;5036994;28;19909;-73
2022/07/03 05:36:23;;;;;;;;;;;;;;;;;;5037243;28;19909;-73
2022/07/03 05:41:33;;;;;;;;;;;;;;;;;;5036299;28;19920;-73
2022/07/03 05:43:59;;;;;;;;;;;;;;;;;;5036823;28;20007;-73
2022/07/03 05:46:25;;;;;;;;;;;;;;;;;;5037096;28;19909;-74
2022/07/03 05:48:51;;;;;;;;;;;;;;;;;;5036961;28;19909;-74
2022/07/03 05:51:17;;;;;;;;;;;;;;;;;;5037496;28;20235;-73
2022/07/03 05:53:43;;;;;;;;;;;;;;;;;;5036973;28;20299;-74
2022/07/03 05:56:09;;;;;;;;;;;;;;;;;;5037226;28;20317;-74
2022/07/03 05:58:35;;;;;;;;;;;;;;;;;;5036242;28;19939;-74
2022/07/03 06:01:01;;;;;;;;;;;;;;;;;;5036579;28;19912;-74
2022/07/03 06:03:27;;;;;;;;;;;;;;;;;;5036466;28;19920;-74
2022/07/03 06:05:53;;;;;;;;;;;;;;;;;;5029680;28;19909;-74
2022/07/03 06:08:19;;;;;;;;;;;;;;;;;;5024505;28;19956;-74
2022/07/03 06:10:45;;;;;;;;;;;;;;;;;;5026699;28;19909;-74
2022/07/03 06:13:13;;;;;;;;;;;;;;;;;;5024842;28;19928;-74
2022/07/03 06:15:39;;;;;;;;;;;;;;;;;;5024936;28;19913;-74
2022/07/03 06:18:05;;;;;;;;;;;;;;;;;;5024737;28;19910;-75
2022/07/03 06:20:31;;;;;;;;;;;;;;;;;;5024423;28;19924;-74
2022/07/03 06:22:57;;;;;;;;;;;;;;;;;;5028320;28;19921;-75
2022/07/03 06:25:23;;;;;;;;;;;;;;;;;;5028694;28;19912;-75
2022/07/03 06:27:49;;;;;;;;;;;;;;;;;;5014494;28;19914;-75
2022/07/03 06:30:15;;;;;;;;;;;;;;;;;;5020446;28;19909;-77
2022/07/03 06:32:41;;;;;;;;;;;;;;;;;;5034730;28;19913;-74
2022/07/03 06:35:07;;;;;;;;;;;;;;;;;;5036031;28;19915;-75
2022/07/03 06:37:33;;;;;;;;;;;;;;;;;;5036022;28;19913;-75
2022/07/03 06:39:59;;;;;;;;;;;;;;;;;;5035532;28;20341;-75
2022/07/03 06:42:25;;;;;;;;;;;;;;;;;;5035213;28;19909;-75
2022/07/03 06:44:51;;;;;;;;;;;;;;;;;;5017792;28;19909;-75
2022/07/03 06:47:17;;;;;;;;;;;;;;;;;;5033576;28;19916;-74
2022/07/03 06:49:43;;;;;;;;;;;;;;;;;;5016961;28;20004;-73
2022/07/03 06:52:09;;;;;;;;;;;;;;;;;;5034720;28;19913;-73
2022/07/03 06:54:39;;;;;;;;;;;;;;;;;;5029437;28;20418;-73
2022/07/03 06:57:05;;;;;;;;;;;;;;;;;;5016134;28;19944;-73
2022/07/03 06:59:31;;;;;;;;;;;;;;;;;;5025410;28;19916;-73
2022/07/03 07:01:57;;;;;;;;;;;;;;;;;;5030007;28;20253;-73
2022/07/03 07:04:23;;;;;;;;;;;;;;;;;;5035204;28;20369;-73
2022/07/03 07:06:49;;;;;;;;;;;;;;;;;;5026552;28;19913;-74
2022/07/03 07:09:15;;;;;;;;;;;;;;;;;;5034634;28;19909;-73
2022/07/03 07:11:41;;;;;;;;;;;;;;;;;;5029167;28;19909;-73
2022/07/03 07:14:07;;;;;;;;;;;;;;;;;;5015351;28;20304;-74
2022/07/03 07:16:33;;;;;;;;;;;;;;;;;;5028092;28;20256;-74
2022/07/03 07:18:59;;;;;;;;;;;;;;;;;;5032586;28;19975;-76
2022/07/03 07:21:25;;;;;;;;;;;;;;;;;;5035013;28;19917;-73
2022/07/03 07:23:51;;;;;;;;;;;;;;;;;;5033796;28;20015;-73
2022/07/03 07:26:18;;;;;;;;;;;;;;;;;;5017062;28;19909;-73
2022/07/03 07:28:44;;;;;;;;;;;;;;;;;;5034975;28;20384;-74
2022/07/03 07:31:10;;;;;;;;;;;;;;;;;;5034516;28;19913;-74
2022/07/03 07:33:36;;;;;;;;;;;;;;;;;;5035175;28;19984;-74
2022/07/03 07:36:02;;;;;;;;;;;;;;;;;;5016953;28;19908;-73
2022/07/03 07:38:27;;;;;;;;;;;;;;;;;;5034883;28;19909;-74
2022/07/03 07:40:54;;;;;;;;;;;;;;;;;;5034531;28;20359;-73
2022/07/03 07:43:20;;;;;;;;;;;;;;;;;;5034855;28;20355;-74
2022/07/03 07:45:46;;;;;;;;;;;;;;;;;;5035155;28;19999;-73
2022/07/03 07:48:12;;;;;;;;;;;;;;;;;;5034450;28;20004;-75
2022/07/03 07:50:38;;;;;;;;;;;;;;;;;;5034789;28;19909;-76
2022/07/03 07:53:04;;;;;;;;;;;;;;;;;;5034706;28;19909;-76
2022/07/03 07:55:30;;;;;;;;;;;;;;;;;;5034751;28;19939;-76
2022/07/03 07:57:56;;;;;;;;;;;;;;;;;;5034575;28;19909;-76
2022/07/03 08:00:22;;;;;;;;;;;;;;;;;;5039534;28;20355;-74
2022/07/03 08:05:36;;;;;;;;;;;;;;;;;;5054053;28;20381;-72
2022/07/03 08:08:01;;;;;;;;;;;;;;;;;;5054383;28;19908;-73
2022/07/03 08:10:27;;;;;;;;;;;;;;;;;;5054756;28;19954;-73
2022/07/03 08:12:53;;;;;;;;;;;;;;;;;;5054501;28;19967;-73
2022/07/03 08:15:19;;;;;;;;;;;;;;;;;;5054520;28;20280;-73
2022/07/03 08:17:45;;;;;;;;;;;;;;;;;;5053902;28;19908;-73
2022/07/03 08:20:11;;;;;;;;;;;;;;;;;;5054405;28;20008;-73
2022/07/03 08:22:37;;;;;;;;;;;;;;;;;;5057420;28;19917;-73
2022/07/03 08:25:03;;;;;;;;;;;;;;;;;;5058196;28;19908;-73
2022/07/03 08:27:29;;;;;;;;;;;;;;;;;;5048456;28;19948;-74
2022/07/03 08:29:55;;;;;;;;;;;;;;;;;;5035077;28;19913;-74
2022/07/03 08:32:21;;;;;;;;;;;;;;;;;;5033491;28;20386;-75
2022/07/03 08:34:47;;;;;;;;;;;;;;;;;;5032693;28;19909;-74
2022/07/03 08:37:13;;;;;;;;;;;;;;;;;;5036353;28;19917;-78
2022/07/03 08:39:39;;;;;;;;;;;;;;;;;;5033123;28;19924;-78
2022/07/03 08:42:06;;;;;;;;;;;;;;;;;;5037949;28;19915;-77
2022/07/03 08:44:32;;;;;;;;;;;;;;;;;;5036788;28;19913;-77
2022/07/03 08:46:58;;;;;;;;;;;;;;;;;;5036768;28;19917;-77
2022/07/03 08:49:24;;;;;;;;;;;;;;;;;;5037586;28;19916;-78
2022/07/03 08:51:50;;;;;;;;;;;;;;;;;;5001206;28;19971;-77
2022/07/03 08:54:16;;;;;;;;;;;;;;;;;;5017976;28;19913;-78
2022/07/03 08:56:42;;;;;;;;;;;;;;;;;;5013508;28;20376;-78
2022/07/03 08:59:08;;;;;;;;;;;;;;;;;;5018044;28;19909;-78
2022/07/03 09:01:34;;;;;;;;;;;;;;;;;;5021524;28;19925;-77
2022/07/03 09:04:01;;;;;;;;;;;;;;;;;;5026196;28;19909;-75
2022/07/03 09:06:33;;;;;;;;;;;;;;;;;;5035148;28;19996;-75
2022/07/03 09:08:59;;;;;;;;;;;;;;;;;;5037102;28;19963;-74
2022/07/03 09:11:25;;;;;;;;;;;;;;;;;;5036066;28;19909;-75
2022/07/03 09:13:53;;;;;;;;;;;;;;;;;;5037442;28;19909;-78
2022/07/03 09:16:19;;;;;;;;;;;;;;;;;;5018827;28;20071;-76
2022/07/03 09:18:45;;;;;;;;;;;;;;;;;;5037138;28;19909;-78
2022/07/03 09:21:11;;;;;;;;;;;;;;;;;;5037575;28;19921;-79
2022/07/03 09:23:37;;;;;;;;;;;;;;;;;;5036941;28;19913;-77
2022/07/03 09:26:03;;;;;;;;;;;;;;;;;;5023428;28;19917;-75
2022/07/03 09:28:29;;;;;;;;;;;;;;;;;;5032899;28;19913;-75
2022/07/03 09:30:55;;;;;;;;;;;;;;;;;;5037246;28;19916;-77
2022/07/03 09:33:22;;;;;;;;;;;;;;;;;;5025027;28;19915;-76
2022/07/03 09:35:48;;;;;;;;;;;;;;;;;;5036292;28;19909;-75
2022/07/03 09:38:14;;;;;;;;;;;;;;;;;;5018767;28;19909;-78
2022/07/03 09:40:40;;;;;;;;;;;;;;;;;;5033330;28;20412;-77
2022/07/03 09:43:06;;;;;;;;;;;;;;;;;;5018694;28;19909;-70
2022/07/03 09:45:32;;;;;;;;;;;;;;;;;;5036545;28;20280;-70
2022/07/03 09:47:58;;;;;;;;;;;;;;;;;;5035241;28;19924;-70
2022/07/03 09:50:24;;;;;;;;;;;;;;;;;;5028261;28;19909;-69
2022/07/03 09:52:50;;;;;;;;;;;;;;;;;;5035482;28;19913;-70
2022/07/03 09:55:16;;;;;;;;;;;;;;;;;;5035981;28;19909;-70
2022/07/03 09:57:42;;;;;;;;;;;;;;;;;;5018253;28;20071;-70
2022/07/03 10:00:08;;;;;;;;;;;;;;;;;;5030083;28;20380;-69
2022/07/03 10:02:34;;;;;;;;;;;;;;;;;;5034958;28;19960;-69
2022/07/03 10:05:00;;;;;;;;;;;;;;;;;;5035034;28;20347;-69
2022/07/03 10:07:26;;;;;;;;;;;;;;;;;;5032811;28;19924;-69
2022/07/03 10:09:52;;;;;;;;;;;;;;;;;;5034190;28;19908;-69
2022/07/03 10:12:17;;;;;;;;;;;;;;;;;;5034939;28;19951;-69
2022/07/03 10:14:43;;;;;;;;;;;;;;;;;;5035115;28;19909;-69
2022/07/03 10:17:09;;;;;;;;;;;;;;;;;;5030146;28;20455;-69
2022/07/03 10:19:35;;;;;;;;;;;;;;;;;;5034558;28;19909;-69
2022/07/03 10:22:02;;;;;;;;;;;;;;;;;;5034269;28;20343;-69
2022/07/03 10:24:28;;;;;;;;;;;;;;;;;;5017571;28;19910;-69
2022/07/03 10:26:54;;;;;;;;;;;;;;;;;;5035120;28;19909;-69
2022/07/03 10:29:20;;;;;;;;;;;;;;;;;;5035459;28;19913;-69
2022/07/03 10:31:49;;;;;;;;;;;;;;;;;;5035644;28;19909;-69
2022/07/03 10:34:15;;;;;;;;;;;;;;;;;;5035341;28;19909;-69
2022/07/03 10:36:41;;;;;;;;;;;;;;;;;;5035424;28;20000;-69
2022/07/03 10:39:07;;;;;;;;;;;;;;;;;;5034520;28;20006;-71
2022/07/03 10:47:02;;;;;;;;;;;;;;;;;;5015269;28;20295;-69
2022/07/03 10:49:28;;;;;;;;;;;;;;;;;;5028598;28;19916;-69
2022/07/03 10:51:54;;;;;;;;;;;;;;;;;;5029012;28;20353;-69
2022/07/03 10:54:20;;;;;;;;;;;;;;;;;;5027134;28;20290;-69
2022/07/03 10:56:46;;;;;;;;;;;;;;;;;;5031840;28;19963;-70
2022/07/03 10:59:12;;;;;;;;;;;;;;;;;;5030461;28;20303;-69
2022/07/03 11:01:38;;;;;;;;;;;;;;;;;;5033123;28;19944;-69
2022/07/03 11:04:05;;;;;;;;;;;;;;;;;;5016326;28;19956;-69
2022/07/03 11:06:31;;;;;;;;;;;;;;;;;;5001987;28;20268;-69
2022/07/03 11:08:56;;;;;;;;;;;;;;;;;;5017267;28;19916;-69
2022/07/03 11:12:05;;;;;;;;;;;;;;;;;;5030731;28;20271;-69
2022/07/03 11:14:12;;;;;;;;;;;;;;;;;;5026391;28;19995;-69
2022/07/03 11:16:38;;;;;;;;;;;;;;;;;;5034386;28;20030;-69
2022/07/03 11:19:03;;;;;;;;;;;;;;;;;;5017013;28;19909;-69
2022/07/03 11:21:30;;;;;;;;;;;;;;;;;;5034513;28;20010;-69
2022/07/03 11:23:56;;;;;;;;;;;;;;;;;;5028865;28;20344;-69
2022/07/03 11:26:22;;;;;;;;;;;;;;;;;;5032350;28;19955;-71
2022/07/03 11:28:47;;;;;;;;;;;;;;;;;;5036698;28;20344;-69
2022/07/03 11:31:14;;;;;;;;;;;;;;;;;;5023614;28;19909;-69
2022/07/03 11:33:40;;;;;;;;;;;;;;;;;;5025493;28;19967;-69
2022/07/03 11:36:05;;;;;;;;;;;;;;;;;;5034240;28;20275;-69
2022/07/03 11:38:31;;;;;;;;;;;;;;;;;;5033900;28;19909;-69
2022/07/03 11:40:57;;;;;;;;;;;;;;;;;;5025977;28;19964;-69
2022/07/03 11:43:23;;;;;;;;;;;;;;;;;;5028978;28;19963;-69
2022/07/03 11:45:49;;;;;;;;;;;;;;;;;;5033396;28;19913;-69
2022/07/03 11:48:15;;;;;;;;;;;;;;;;;;5025627;28;19924;-69
2022/07/03 11:50:41;;;;;;;;;;;;;;;;;;5032238;28;19909;-69
2022/07/03 11:53:07;;;;;;;;;;;;;;;;;;5028230;28;19963;-69
2022/07/03 11:55:33;;;;;;;;;;;;;;;;;;5019378;28;19955;-69
2022/07/03 11:57:59;;;;;;;;;;;;;;;;;;5029087;28;19913;-69
2022/07/03 12:00:25;;;;;;;;;;;;;;;;;;5037953;28;19925;-69
2022/07/03 12:02:51;;;;;;;;;;;;;;;;;;5034106;28;20379;-69
2022/07/03 12:05:17;;;;;;;;;;;;;;;;;;5035700;28;20006;-69
2022/07/03 12:07:43;;;;;;;;;;;;;;;;;;5037620;28;19909;-69
2022/07/03 12:10:09;;;;;;;;;;;;;;;;;;5036696;28;19912;-67
2022/07/03 12:12:35;;;;;;;;;;;;;;;;;;5036475;28;19932;-67
2022/07/03 12:15:02;;;;;;;;;;;;;;;;;;5037288;28;20386;-67
2022/07/03 12:17:28;;;;;;;;;;;;;;;;;;5037425;28;19909;-69
2022/07/03 12:19:54;;;;;;;;;;;;;;;;;;5035777;28;19991;-69
2022/07/03 12:22:20;;;;;;;;;;;;;;;;;;5035215;28;19959;-69
2022/07/03 12:24:46;;;;;;;;;;;;;;;;;;5034718;28;19935;-69
2022/07/03 12:27:12;;;;;;;;;;;;;;;;;;5036859;28;19916;-69
2022/07/03 12:29:38;;;;;;;;;;;;;;;;;;5036382;28;19909;-69
2022/07/03 12:32:04;;;;;;;;;;;;;;;;;;5037040;28;19909;-69
2022/07/03 12:34:30;;;;;;;;;;;;;;;;;;5036633;28;19920;-69
2022/07/03 12:36:56;;;;;;;;;;;;;;;;;;5035599;28;19917;-69
2022/07/03 12:39:22;;;;;;;;;;;;;;;;;;5017987;28;19916;-69
2022/07/03 12:41:48;;;;;;;;;;;;;;;;;;5019120;28;19916;-69
2022/07/03 12:44:18;;;;;;;;;;;;;;;;;;5036391;28;19921;-69
2022/07/03 12:46:44;;;;;;;;;;;;;;;;;;5036320;28;19971;-69
2022/07/03 12:49:10;;;;;;;;;;;;;;;;;;5035515;28;19916;-69
2022/07/03 12:51:37;;;;;;;;;;;;;;;;;;5036283;28;19979;-69
2022/07/03 12:54:03;;;;;;;;;;;;;;;;;;5035964;28;19909;-69
2022/07/03 12:56:29;;;;;;;;;;;;;;;;;;5035911;28;20422;-69
2022/07/03 13:01:39;;;;;;;;;;;;;;;;;;5044278;28;20397;-69
2022/07/03 13:04:08;;;;;;;;;;;;;;;;;;5039539;28;19913;-70
2022/07/03 13:06:34;;;;;;;;;;;;;;;;;;5033531;28;20347;-69
2022/07/03 13:09:00;;;;;;;;;;;;;;;;;;5035300;28;19956;-69
2022/07/03 13:11:26;;;;;;;;;;;;;;;;;;5030813;28;19936;-69
2022/07/03 13:13:52;;;;;;;;;;;;;;;;;;5024936;28;19924;-69
2022/07/03 13:16:18;;;;;;;;;;;;;;;;;;5018013;28;20318;-69
2022/07/03 13:18:44;;;;;;;;;;;;;;;;;;5036314;28;19955;-68
2022/07/03 13:21:10;;;;;;;;;;;;;;;;;;5041422;28;19925;-69
2022/07/03 13:23:36;;;;;;;;;;;;;;;;;;5034814;28;20328;-69
2022/07/03 13:26:02;;;;;;;;;;;;;;;;;;5033590;28;19913;-69
2022/07/03 13:28:27;;;;;;;;;;;;;;;;;;5032059;28;19909;-69
2022/07/03 13:30:53;;;;;;;;;;;;;;;;;;5036024;28;19962;-69
2022/07/03 13:33:19;;;;;;;;;;;;;;;;;;5034692;28;19913;-69
2022/07/03 13:35:45;;;;;;;;;;;;;;;;;;5034767;28;20524;-69
2022/07/03 13:38:11;;;;;;;;;;;;;;;;;;5042447;28;20313;-69
2022/07/03 13:40:39;;;;;;;;;;;;;;;;;;5055593;28;19944;-69
2022/07/03 13:43:05;;;;;;;;;;;;;;;;;;5055561;28;19908;-69
2022/07/03 13:45:31;;;;;;;;;;;;;;;;;;5037076;28;19916;-69
2022/07/03 13:47:57;;;;;;;;;;;;;;;;;;5033987;28;19960;-69
2022/07/03 13:50:23;;;;;;;;;;;;;;;;;;5035919;28;19936;-69
2022/07/03 13:52:49;;;;;;;;;;;;;;;;;;5035676;28;19924;-69
2022/07/03 13:55:16;;;;;;;;;;;;;;;;;;5035711;28;19917;-69
2022/07/03 13:57:42;;;;;;;;;;;;;;;;;;5035442;28;19944;-69
2022/07/03 14:00:08;;;;;;;;;;;;;;;;;;5035402;28;19960;-69
2022/07/03 14:02:34;;;;;;;;;;;;;;;;;;5034597;28;20382;-69
2022/07/03 14:05:00;;;;;;;;;;;;;;;;;;5035688;28;19913;-69
2022/07/03 14:07:26;;;;;;;;;;;;;;;;;;5035274;28;19909;-69
2022/07/03 14:09:52;;;;;;;;;;;;;;;;;;5034388;28;19916;-69
2022/07/03 14:12:18;;;;;;;;;;;;;;;;;;5035797;28;19963;-69
2022/07/03 14:14:43;;;;;;;;;;;;;;;;;;5035090;28;19908;-69
2022/07/03 14:17:09;;;;;;;;;;;;;;;;;;5035471;28;19913;-69
2022/07/03 14:19:35;;;;;;;;;;;;;;;;;;5034763;28;19962;-69
2022/07/03 14:22:01;;;;;;;;;;;;;;;;;;5034837;28;19909;-69
2022/07/03 14:24:27;;;;;;;;;;;;;;;;;;5034859;28;20356;-69
2022/07/03 14:32:29;;;;;;;;;;;;;;;;;;5021867;28;19916;-69
2022/07/03 14:34:55;;;;;;;;;;;;;;;;;;5033853;28;20262;-69
2022/07/03 14:37:21;;;;;;;;;;;;;;;;;;5034568;28;20382;-69
2022/07/03 14:39:47;;;;;;;;;;;;;;;;;;5034757;28;19909;-69
2022/07/03 14:42:13;;;;;;;;;;;;;;;;;;5034805;28;20360;-69
2022/07/03 14:44:39;;;;;;;;;;;;;;;;;;5034259;28;19909;-69
2022/07/03 14:47:05;;;;;;;;;;;;;;;;;;5035120;28;19992;-69
2022/07/03 14:49:31;;;;;;;;;;;;;;;;;;5034185;28;19952;-69
2022/07/03 14:51:57;;;;;;;;;;;;;;;;;;5034778;28;19909;-69
2022/07/03 14:54:23;;;;;;;;;;;;;;;;;;5035209;28;19955;-69
2022/07/03 14:56:49;;;;;;;;;;;;;;;;;;5034441;28;19909;-69
2022/07/03 14:59:15;;;;;;;;;;;;;;;;;;5034963;28;19917;-69
2022/07/03 15:01:41;;;;;;;;;;;;;;;;;;5028026;28;19925;-69
2022/07/03 15:04:07;;;;;;;;;;;;;;;;;;5033577;28;20035;-69
2022/07/03 15:06:33;;;;;;;;;;;;;;;;;;5034450;28;20387;-69
2022/07/03 15:08:59;;;;;;;;;;;;;;;;;;5034232;28;19980;-69
2022/07/03 15:14:10;;;;;;;;;;;;;;;;;;5033266;28;19924;-69
2022/07/03 15:16:36;;;;;;;;;;;;;;;;;;5032076;28;19913;-69
2022/07/03 15:19:02;;;;;;;;;;;;;;;;;;5032647;28;19996;-69
2022/07/03 15:21:28;;;;;;;;;;;;;;;;;;5033992;28;19924;-69
2022/07/03 15:23:54;;;;;;;;;;;;;;;;;;5025773;28;20347;-69
2022/07/03 15:26:20;;;;;;;;;;;;;;;;;;5029865;28;20339;-69
2022/07/03 15:28:46;;;;;;;;;;;;;;;;;;5034724;28;19913;-69
2022/07/03 15:31:12;;;;;;;;;;;;;;;;;;5034396;28;19913;-69
2022/07/03 15:33:38;;;;;;;;;;;;;;;;;;5034363;28;19916;-69
2022/07/03 15:36:04;;;;;;;;;;;;;;;;;;5034864;28;19909;-69
2022/07/03 15:38:30;;;;;;;;;;;;;;;;;;5035164;28;20008;-69
2022/07/03 15:40:56;;;;;;;;;;;;;;;;;;5034791;28;20364;-69
2022/07/03 15:43:22;;;;;;;;;;;;;;;;;;5022781;28;20359;-70
2022/07/03 15:45:47;;;;;;;;;;;;;;;;;;5015129;28;20345;-68
2022/07/03 15:48:13;;;;;;;;;;;;;;;;;;5014746;28;20249;-68
2022/07/03 15:50:39;;;;;;;;;;;;;;;;;;5015105;28;20259;-67
2022/07/03 15:53:05;;;;;;;;;;;;;;;;;;5019624;28;19913;-67
2022/07/03 15:55:33;;;;;;;;;;;;;;;;;;5023389;28;19915;-68
2022/07/03 15:57:59;;;;;;;;;;;;;;;;;;5053882;28;19956;-68
2022/07/03 16:00:26;;;;;;;;;;;;;;;;;;5054203;28;20379;-68
2022/07/03 16:02:52;;;;;;;;;;;;;;;;;;5046241;28;19909;-68
2022/07/03 16:05:19;;;;;;;;;;;;;;;;;;5033789;28;19984;-67
2022/07/03 16:07:45;;;;;;;;;;;;;;;;;;5024526;28;20257;-68
2022/07/03 16:10:11;;;;;;;;;;;;;;;;;;5023302;28;19924;-68
2022/07/03 16:12:40;;;;;;;;;;;;;;;;;;5030531;28;20352;-68
2022/07/03 16:15:06;;;;;;;;;;;;;;;;;;5032694;28;19917;-68
2022/07/03 16:17:32;;;;;;;;;;;;;;;;;;5033552;28;19916;-68
2022/07/03 16:19:58;;;;;;;;;;;;;;;;;;5031959;28;19960;-68
2022/07/03 16:22:24;;;;;;;;;;;;;;;;;;5023929;28;19948;-68
2022/07/03 16:24:50;;;;;;;;;;;;;;;;;;5030531;28;20008;-68
2022/07/03 16:27:17;;;;;;;;;;;;;;;;;;5017815;28;20426;-68
2022/07/03 16:29:43;;;;;;;;;;;;;;;;;;5026016;28;19916;-68
2022/07/03 16:32:09;;;;;;;;;;;;;;;;;;5023286;28;20348;-68
2022/07/03 16:34:35;;;;;;;;;;;;;;;;;;5023825;28;20346;-68
2022/07/03 16:37:02;;;;;;;;;;;;;;;;;;5022265;28;19988;-68
2022/07/03 16:39:28;;;;;;;;;;;;;;;;;;5024874;28;19910;-68
2022/07/03 16:41:54;;;;;;;;;;;;;;;;;;5025012;28;20476;-68
2022/07/03 16:44:23;;;;;;;;;;;;;;;;;;5028663;28;19920;-68
2022/07/03 16:46:49;;;;;;;;;;;;;;;;;;5026768;28;20435;-68
2022/07/03 16:49:15;;;;;;;;;;;;;;;;;;5027683;28;19976;-68
2022/07/03 16:51:41;;;;;;;;;;;;;;;;;;5025793;28;19939;-68
2022/07/03 16:54:08;;;;;;;;;;;;;;;;;;5030597;28;19941;-68
2022/07/03 16:56:34;;;;;;;;;;;;;;;;;;5026032;28;19909;-68
2022/07/03 16:59:00;;;;;;;;;;;;;;;;;;5028149;28;20355;-68